sensor_id;sensor_type;location;lat;lon;timestamp;pressure;altitude;pressure_sealevel;temperature;humidity
62634;BME280;48704;50.534;6.442;2023-04-19T00:02:15;96278.22;;;7.36;100.00
62634;BME280;48704;50.534;6.442;2023-04-19T00:04:42;96275.13;;;7.34;100.00
62634;BME280;48704;50.534;6.442;2023-04-19T00:07:08;96278.13;;;7.40;100.00
62634;BME280;48704;50.534;6.442;2023-04-19T00:09:34;96284.09;;;7.38;100.00
62634;BME280;48704;50.534;6.442;2023-04-19T00:11:59;96270.91;;;7.43;100.00
62634;BME280;48704;50.534;6.442;2023-04-19T00:14:25;96277.91;;;7.47;100.00
62634;BME280;48704;50.534;6.442;2023-04-19T00:16:50;96278.22;;;7.36;100.00
62634;BME280;48704;50.534;6.442;2023-04-19T00:19:15;96277.53;;;7.32;100.00
62634;BME280;48704;50.534;6.442;2023-04-19T00:21:41;96274.25;;;7.37;100.00
62634;BME280;48704;50.534;6.442;2023-04-19T00:24:06;96280.38;;;7.16;100.00
62634;BME280;48704;50.534;6.442;2023-04-19T00:26:31;96272.28;;;7.22;100.00
62634;BME280;48704;50.534;6.442;2023-04-19T00:28:56;96270.78;;;7.33;100.00
62634;BME280;48704;50.534;6.442;2023-04-19T00:31:22;96265.78;;;7.28;100.00
62634;BME280;48704;50.534;6.442;2023-04-19T00:33:47;96272.88;;;7.29;100.00
62634;BME280;48704;50.534;6.442;2023-04-19T00:36:12;96270.44;;;7.31;100.00
62634;BME280;48704;50.534;6.442;2023-04-19T00:38:38;96273.28;;;7.15;100.00
62634;BME280;48704;50.534;6.442;2023-04-19T00:41:03;96270.31;;;7.22;100.00
62634;BME280;48704;50.534;6.442;2023-04-19T00:43:28;96275.78;;;7.10;100.00
62634;BME280;48704;50.534;6.442;2023-04-19T00:45:53;96277.25;;;7.14;100.00
62634;BME280;48704;50.534;6.442;2023-04-19T00:48:19;96276.25;;;7.08;100.00
62634;BME280;48704;50.534;6.442;2023-04-19T00:50:44;96267.28;;;7.17;100.00
62634;BME280;48704;50.534;6.442;2023-04-19T00:53:10;96265.50;;;7.10;100.00
62634;BME280;48704;50.534;6.442;2023-04-19T00:55:37;96270.16;;;7.13;100.00
62634;BME280;48704;50.534;6.442;2023-04-19T00:58:04;96264.53;;;7.17;100.00
62634;BME280;48704;50.534;6.442;2023-04-19T01:00:30;96270.69;;;7.08;100.00
62634;BME280;48704;50.534;6.442;2023-04-19T01:02:56;96262.13;;;7.31;100.00
62634;BME280;48704;50.534;6.442;2023-04-19T01:05:22;96268.13;;;7.30;100.00
62634;BME280;48704;50.534;6.442;2023-04-19T01:07:47;96268.88;;;7.30;100.00
62634;BME280;48704;50.534;6.442;2023-04-19T01:10:13;96265.09;;;7.24;100.00
62634;BME280;48704;50.534;6.442;2023-04-19T01:12:39;96264.91;;;7.31;100.00
62634;BME280;48704;50.534;6.442;2023-04-19T01:15:04;96256.25;;;7.29;100.00
62634;BME280;48704;50.534;6.442;2023-04-19T01:17:31;96262.66;;;7.26;100.00
62634;BME280;48704;50.534;6.442;2023-04-19T01:20:01;96258.69;;;7.27;100.00
62634;BME280;48704;50.534;6.442;2023-04-19T01:22:28;96261.66;;;7.20;100.00
62634;BME280;48704;50.534;6.442;2023-04-19T01:24:54;96258.88;;;7.20;100.00
62634;BME280;48704;50.534;6.442;2023-04-19T01:27:20;96250.41;;;7.11;100.00
62634;BME280;48704;50.534;6.442;2023-04-19T01:29:45;96256.94;;;7.33;100.00
62634;BME280;48704;50.534;6.442;2023-04-19T01:32:10;96251.09;;;7.15;100.00
62634;BME280;48704;50.534;6.442;2023-04-19T01:34:37;96254.09;;;7.21;100.00
62634;BME280;48704;50.534;6.442;2023-04-19T01:37:03;96248.00;;;7.13;100.00
62634;BME280;48704;50.534;6.442;2023-04-19T01:39:28;96249.63;;;7.11;100.00
62634;BME280;48704;50.534;6.442;2023-04-19T01:41:54;96243.81;;;7.21;100.00
62634;BME280;48704;50.534;6.442;2023-04-19T01:44:19;96251.09;;;7.15;100.00
62634;BME280;48704;50.534;6.442;2023-04-19T01:46:44;96245.34;;;7.22;100.00
62634;BME280;48704;50.534;6.442;2023-04-19T01:49:10;96240.50;;;7.26;100.00
62634;BME280;48704;50.534;6.442;2023-04-19T01:51:37;96242.63;;;7.35;100.00
62634;BME280;48704;50.534;6.442;2023-04-19T01:54:03;96240.69;;;7.19;100.00
62634;BME280;48704;50.534;6.442;2023-04-19T01:56:28;96236.56;;;7.11;100.00
62634;BME280;48704;50.534;6.442;2023-04-19T01:58:54;96228.16;;;7.15;100.00
62634;BME280;48704;50.534;6.442;2023-04-19T02:01:19;96239.91;;;7.19;100.00
62634;BME280;48704;50.534;6.442;2023-04-19T02:03:44;96233.94;;;7.20;100.00
62634;BME280;48704;50.534;6.442;2023-04-19T02:06:10;96228.13;;;7.02;100.00
62634;BME280;48704;50.534;6.442;2023-04-19T02:08:40;96225.22;;;7.05;100.00
62634;BME280;48704;50.534;6.442;2023-04-19T02:11:09;96223.72;;;7.04;100.00
62634;BME280;48704;50.534;6.442;2023-04-19T02:13:35;96222.69;;;6.98;100.00
62634;BME280;48704;50.534;6.442;2023-04-19T02:16:00;96226.16;;;7.02;100.00
62634;BME280;48704;50.534;6.442;2023-04-19T02:18:30;96218.94;;;7.05;100.00
62634;BME280;48704;50.534;6.442;2023-04-19T02:20:56;96225.38;;;7.02;100.00
62634;BME280;48704;50.534;6.442;2023-04-19T02:23:21;96209.81;;;6.92;100.00
62634;BME280;48704;50.534;6.442;2023-04-19T02:25:47;96218.94;;;7.05;100.00
62634;BME280;48704;50.534;6.442;2023-04-19T02:28:12;96217.94;;;6.99;100.00
62634;BME280;48704;50.534;6.442;2023-04-19T02:30:37;96216.91;;;7.05;100.00
62634;BME280;48704;50.534;6.442;2023-04-19T02:33:03;96220.38;;;7.10;100.00
62634;BME280;48704;50.534;6.442;2023-04-19T02:35:28;96214.84;;;7.10;100.00
62634;BME280;48704;50.534;6.442;2023-04-19T02:37:53;96215.16;;;6.99;100.00
62634;BME280;48704;50.534;6.442;2023-04-19T02:40:18;96216.91;;;6.93;100.00
62634;BME280;48704;50.534;6.442;2023-04-19T02:42:45;96219.81;;;7.02;100.00
62634;BME280;48704;50.534;6.442;2023-04-19T02:45:10;96218.47;;;6.94;100.00
62634;BME280;48704;50.534;6.442;2023-04-19T02:47:35;96215.16;;;6.99;100.00
62634;BME280;48704;50.534;6.442;2023-04-19T02:50:01;96222.25;;;7.00;100.00
62634;BME280;48704;50.534;6.442;2023-04-19T02:52:26;96217.38;;;7.04;100.00
62634;BME280;48704;50.534;6.442;2023-04-19T02:54:52;96223.13;;;6.97;100.00
62634;BME280;48704;50.534;6.442;2023-04-19T02:57:17;96224.44;;;6.92;100.00
62634;BME280;48704;50.534;6.442;2023-04-19T02:59:42;96216.16;;;6.76;100.00
62634;BME280;48704;50.534;6.442;2023-04-19T03:02:08;96218.75;;;6.83;100.00
62634;BME280;48704;50.534;6.442;2023-04-19T03:04:33;96217.69;;;6.93;100.00
62634;BME280;48704;50.534;6.442;2023-04-19T03:06:58;96211.38;;;6.93;100.00
62634;BME280;48704;50.534;6.442;2023-04-19T03:09:24;96212.25;;;6.90;100.00
62634;BME280;48704;50.534;6.442;2023-04-19T03:11:49;96213.16;;;6.70;100.00
62634;BME280;48704;50.534;6.442;2023-04-19T03:14:15;96205.53;;;6.75;100.00
62634;BME280;48704;50.534;6.442;2023-04-19T03:16:40;96205.44;;;6.49;100.00
62634;BME280;48704;50.534;6.442;2023-04-19T03:19:06;96212.34;;;6.57;100.00
62634;BME280;48704;50.534;6.442;2023-04-19T03:21:31;96214.09;;;6.51;100.00
62634;BME280;48704;50.534;6.442;2023-04-19T03:23:56;96212.72;;;6.43;100.00
62634;BME280;48704;50.534;6.442;2023-04-19T03:26:21;96214.00;;;6.55;100.00
62634;BME280;48704;50.534;6.442;2023-04-19T03:28:47;96213.88;;;6.29;100.00
62634;BME280;48704;50.534;6.442;2023-04-19T03:31:12;96201.91;;;6.32;100.00
62634;BME280;48704;50.534;6.442;2023-04-19T03:33:38;96204.75;;;6.45;100.00
62634;BME280;48704;50.534;6.442;2023-04-19T03:36:03;96208.94;;;6.21;100.00
62634;BME280;48704;50.534;6.442;2023-04-19T03:38:29;96204.44;;;5.94;100.00
62634;BME280;48704;50.534;6.442;2023-04-19T03:40:55;96213.09;;;5.96;100.00
62634;BME280;48704;50.534;6.442;2023-04-19T03:43:21;96207.56;;;5.96;100.00
62634;BME280;48704;50.534;6.442;2023-04-19T03:45:46;96208.25;;;6.00;100.00
62634;BME280;48704;50.534;6.442;2023-04-19T03:48:12;96208.09;;;6.08;100.00
62634;BME280;48704;50.534;6.442;2023-04-19T03:50:37;96198.41;;;6.16;100.00
62634;BME280;48704;50.534;6.442;2023-04-19T03:53:03;96201.53;;;6.18;100.00
62634;BME280;48704;50.534;6.442;2023-04-19T03:55:29;96206.00;;;6.28;100.00
62634;BME280;48704;50.534;6.442;2023-04-19T03:57:55;96200.47;;;6.28;100.00
62634;BME280;48704;50.534;6.442;2023-04-19T04:00:20;96201.13;;;6.32;100.00
62634;BME280;48704;50.534;6.442;2023-04-19T04:02:45;96204.88;;;6.09;100.00
62634;BME280;48704;50.534;6.442;2023-04-19T04:05:11;96203.75;;;6.23;100.00
62634;BME280;48704;50.534;6.442;2023-04-19T04:07:36;96204.63;;;6.20;100.00
62634;BME280;48704;50.534;6.442;2023-04-19T04:10:01;96198.72;;;6.34;100.00
62634;BME280;48704;50.534;6.442;2023-04-19T04:12:27;96211.50;;;6.44;100.00
62634;BME280;48704;50.534;6.442;2023-04-19T04:14:52;96199.78;;;6.24;100.00
62634;BME280;48704;50.534;6.442;2023-04-19T04:17:18;96207.56;;;6.13;100.00
62634;BME280;48704;50.534;6.442;2023-04-19T04:19:43;96213.44;;;6.15;100.00
62634;BME280;48704;50.534;6.442;2023-04-19T04:22:08;96217.25;;;6.21;100.00
62634;BME280;48704;50.534;6.442;2023-04-19T04:24:40;96208.22;;;6.33;100.00
62634;BME280;48704;50.534;6.442;2023-04-19T04:27:07;96224.94;;;6.29;100.00
62634;BME280;48704;50.534;6.442;2023-04-19T04:29:35;96224.25;;;6.25;100.00
62634;BME280;48704;50.534;6.442;2023-04-19T04:32:01;96225.25;;;6.48;100.00
62634;BME280;48704;50.534;6.442;2023-04-19T04:34:26;96221.63;;;6.51;100.00
62634;BME280;48704;50.534;6.442;2023-04-19T04:36:52;96218.06;;;6.50;100.00
62634;BME280;48704;50.534;6.442;2023-04-19T04:39:17;96216.59;;;6.46;100.00
62634;BME280;48704;50.534;6.442;2023-04-19T04:41:43;96223.75;;;6.59;100.00
62634;BME280;48704;50.534;6.442;2023-04-19T04:44:08;96217.38;;;6.46;100.00
62634;BME280;48704;50.534;6.442;2023-04-19T04:46:34;96233.66;;;6.44;100.00
62634;BME280;48704;50.534;6.442;2023-04-19T04:49:00;96232.63;;;6.38;100.00
62634;BME280;48704;50.534;6.442;2023-04-19T04:51:25;96222.03;;;6.49;100.00
62634;BME280;48704;50.534;6.442;2023-04-19T04:53:51;96224.88;;;6.62;100.00
62634;BME280;48704;50.534;6.442;2023-04-19T04:56:17;96233.09;;;6.65;100.00
62634;BME280;48704;50.534;6.442;2023-04-19T04:58:42;96239.84;;;6.64;100.00
62634;BME280;48704;50.534;6.442;2023-04-19T05:01:07;96228.28;;;6.53;100.00
62634;BME280;48704;50.534;6.442;2023-04-19T05:03:32;96230.50;;;6.58;100.00
62634;BME280;48704;50.534;6.442;2023-04-19T05:05:58;96234.50;;;6.57;100.00
62634;BME280;48704;50.534;6.442;2023-04-19T05:08:25;96222.66;;;6.57;100.00
62634;BME280;48704;50.534;6.442;2023-04-19T05:10:50;96228.56;;;6.71;100.00
62634;BME280;48704;50.534;6.442;2023-04-19T05:13:16;96230.59;;;6.84;100.00
62634;BME280;48704;50.534;6.442;2023-04-19T05:15:41;96225.84;;;6.55;100.00
62634;BME280;48704;50.534;6.442;2023-04-19T05:18:06;96230.69;;;6.51;100.00
62634;BME280;48704;50.534;6.442;2023-04-19T05:20:32;96231.19;;;6.62;100.00
62634;BME280;48704;50.534;6.442;2023-04-19T05:22:58;96228.09;;;6.60;100.00
62634;BME280;48704;50.534;6.442;2023-04-19T05:25:24;96238.75;;;6.75;100.00
62634;BME280;48704;50.534;6.442;2023-04-19T05:27:50;96236.25;;;6.80;100.00
62634;BME280;48704;50.534;6.442;2023-04-19T05:30:15;96224.78;;;6.65;100.00
62634;BME280;48704;50.534;6.442;2023-04-19T05:32:40;96229.44;;;6.68;100.00
62634;BME280;48704;50.534;6.442;2023-04-19T05:35:06;96217.34;;;6.62;100.00
62634;BME280;48704;50.534;6.442;2023-04-19T05:37:32;96220.59;;;6.74;100.00
62634;BME280;48704;50.534;6.442;2023-04-19T05:39:57;96219.81;;;6.73;100.00
62634;BME280;48704;50.534;6.442;2023-04-19T05:42:23;96217.38;;;6.75;100.00
62634;BME280;48704;50.534;6.442;2023-04-19T05:44:48;96214.94;;;6.64;100.00
62634;BME280;48704;50.534;6.442;2023-04-19T05:47:13;96215.22;;;6.83;100.00
62634;BME280;48704;50.534;6.442;2023-04-19T05:49:40;96216.41;;;6.82;100.00
62634;BME280;48704;50.534;6.442;2023-04-19T05:52:05;96222.09;;;6.91;100.00
62634;BME280;48704;50.534;6.442;2023-04-19T05:54:31;96219.16;;;6.98;100.00
62634;BME280;48704;50.534;6.442;2023-04-19T05:57:00;96213.13;;;6.87;100.00
62634;BME280;48704;50.534;6.442;2023-04-19T05:59:25;96213.50;;;6.72;100.00
62634;BME280;48704;50.534;6.442;2023-04-19T06:01:50;96217.28;;;6.79;100.00
62634;BME280;48704;50.534;6.442;2023-04-19T06:04:16;96214.66;;;6.88;100.00
62634;BME280;48704;50.534;6.442;2023-04-19T06:06:42;96211.75;;;6.79;100.00
62634;BME280;48704;50.534;6.442;2023-04-19T06:09:07;96218.66;;;6.87;100.00
62634;BME280;48704;50.534;6.442;2023-04-19T06:11:32;96224.19;;;6.87;100.00
62634;BME280;48704;50.534;6.442;2023-04-19T06:13:58;96223.22;;;6.93;100.00
62634;BME280;48704;50.534;6.442;2023-04-19T06:16:23;96223.50;;;6.83;100.00
62634;BME280;48704;50.534;6.442;2023-04-19T06:18:48;96222.44;;;6.93;100.00
62634;BME280;48704;50.534;6.442;2023-04-19T06:21:14;96220.47;;;6.93;100.00
62634;BME280;48704;50.534;6.442;2023-04-19T06:23:39;96214.56;;;6.91;100.00
62634;BME280;48704;50.534;6.442;2023-04-19T06:26:04;96221.63;;;7.21;100.00
62634;BME280;48704;50.534;6.442;2023-04-19T06:28:30;96216.19;;;7.05;100.00
62634;BME280;48704;50.534;6.442;2023-04-19T06:30:55;96211.91;;;7.29;100.00
62634;BME280;48704;50.534;6.442;2023-04-19T06:33:21;96214.13;;;7.34;100.00
62634;BME280;48704;50.534;6.442;2023-04-19T06:35:46;96216.22;;;7.43;100.00
62634;BME280;48704;50.534;6.442;2023-04-19T06:38:11;96215.91;;;7.54;100.00
62634;BME280;48704;50.534;6.442;2023-04-19T06:40:36;96208.38;;;7.67;100.00
62634;BME280;48704;50.534;6.442;2023-04-19T06:43:02;96211.69;;;7.87;100.00
62634;BME280;48704;50.534;6.442;2023-04-19T06:45:27;96216.69;;;7.92;100.00
62634;BME280;48704;50.534;6.442;2023-04-19T06:47:53;96225.56;;;8.13;100.00
62634;BME280;48704;50.534;6.442;2023-04-19T06:50:19;96223.00;;;8.05;100.00
62634;BME280;48704;50.534;6.442;2023-04-19T06:52:44;96217.34;;;8.09;100.00
62634;BME280;48704;50.534;6.442;2023-04-19T06:55:10;96225.31;;;8.32;100.00
62634;BME280;48704;50.534;6.442;2023-04-19T06:57:35;96216.56;;;8.56;100.00
62634;BME280;48704;50.534;6.442;2023-04-19T07:00:02;96220.72;;;8.51;100.00
62634;BME280;48704;50.534;6.442;2023-04-19T07:02:28;96216.31;;;8.41;100.00
62634;BME280;48704;50.534;6.442;2023-04-19T07:04:53;96220.84;;;8.48;100.00
62634;BME280;48704;50.534;6.442;2023-04-19T07:07:18;96222.19;;;8.78;100.00
62634;BME280;48704;50.534;6.442;2023-04-19T07:09:44;96217.34;;;8.56;100.00
62634;BME280;48704;50.534;6.442;2023-04-19T07:12:09;96222.84;;;8.82;100.00
62634;BME280;48704;50.534;6.442;2023-04-19T07:14:35;96224.50;;;9.01;100.00
62634;BME280;48704;50.534;6.442;2023-04-19T07:17:00;96227.81;;;8.87;100.00
62634;BME280;48704;50.534;6.442;2023-04-19T07:19:25;96225.53;;;8.94;100.00
62634;BME280;48704;50.534;6.442;2023-04-19T07:21:52;96215.47;;;8.88;100.00
62634;BME280;48704;50.534;6.442;2023-04-19T07:24:17;96225.44;;;8.63;100.00
62634;BME280;48704;50.534;6.442;2023-04-19T07:26:42;96220.47;;;8.58;100.00
62634;BME280;48704;50.534;6.442;2023-04-19T07:29:08;96218.94;;;8.79;100.00
62634;BME280;48704;50.534;6.442;2023-04-19T07:31:33;96221.88;;;8.63;100.00
62634;BME280;48704;50.534;6.442;2023-04-19T07:33:58;96218.31;;;8.97;100.00
62634;BME280;48704;50.534;6.442;2023-04-19T07:36:24;96220.38;;;8.84;100.00
62634;BME280;48704;50.534;6.442;2023-04-19T07:38:49;96215.34;;;9.13;100.00
62634;BME280;48704;50.534;6.442;2023-04-19T07:41:15;96212.88;;;8.93;100.00
62634;BME280;48704;50.534;6.442;2023-04-19T07:43:40;96213.78;;;9.12;100.00
62634;BME280;48704;50.534;6.442;2023-04-19T07:46:12;96214.69;;;9.09;100.00
62634;BME280;48704;50.534;6.442;2023-04-19T07:48:38;96211.38;;;9.01;100.00
62634;BME280;48704;50.534;6.442;2023-04-19T07:51:11;96208.59;;;9.01;100.00
62634;BME280;48704;50.534;6.442;2023-04-19T07:53:38;96208.41;;;8.96;100.00
62634;BME280;48704;50.534;6.442;2023-04-19T07:56:05;96209.47;;;9.11;100.00
62634;BME280;48704;50.534;6.442;2023-04-19T07:58:30;96211.22;;;9.18;100.00
62634;BME280;48704;50.534;6.442;2023-04-19T08:00:55;96214.22;;;9.32;100.00
62634;BME280;48704;50.534;6.442;2023-04-19T08:03:21;96207.72;;;9.26;100.00
62634;BME280;48704;50.534;6.442;2023-04-19T08:05:46;96206.56;;;9.46;100.00
62634;BME280;48704;50.534;6.442;2023-04-19T08:08:11;96204.47;;;9.59;100.00
62634;BME280;48704;50.534;6.442;2023-04-19T08:10:37;96205.72;;;9.58;100.00
62634;BME280;48704;50.534;6.442;2023-04-19T08:13:02;96203.28;;;9.69;100.00
62634;BME280;48704;50.534;6.442;2023-04-19T08:15:27;96201.34;;;9.48;100.00
62634;BME280;48704;50.534;6.442;2023-04-19T08:17:52;96203.72;;;9.67;100.00
62634;BME280;48704;50.534;6.442;2023-04-19T08:20:18;96204.31;;;9.93;100.00
62634;BME280;48704;50.534;6.442;2023-04-19T08:22:43;96199.03;;;9.86;100.00
62634;BME280;48704;50.534;6.442;2023-04-19T08:25:09;96194.88;;;9.91;100.00
62634;BME280;48704;50.534;6.442;2023-04-19T08:27:35;96196.47;;;10.10;100.00
62634;BME280;48704;50.534;6.442;2023-04-19T08:30:00;96191.75;;;10.29;100.00
62634;BME280;48704;50.534;6.442;2023-04-19T08:32:26;96192.69;;;10.26;100.00
62634;BME280;48704;50.534;6.442;2023-04-19T08:34:51;96183.03;;;10.18;100.00
62634;BME280;48704;50.534;6.442;2023-04-19T08:37:17;96191.38;;;10.18;100.00
62634;BME280;48704;50.534;6.442;2023-04-19T08:39:42;96199.94;;;9.83;100.00
62634;BME280;48704;50.534;6.442;2023-04-19T08:42:08;96195.81;;;9.57;100.00
62634;BME280;48704;50.534;6.442;2023-04-19T08:44:35;96198.81;;;9.41;100.00
62634;BME280;48704;50.534;6.442;2023-04-19T08:47:02;96194.34;;;9.43;100.00
62634;BME280;48704;50.534;6.442;2023-04-19T08:49:28;96202.66;;;9.65;100.00
62634;BME280;48704;50.534;6.442;2023-04-19T08:51:56;96192.69;;;9.86;100.00
62634;BME280;48704;50.534;6.442;2023-04-19T08:54:22;96196.56;;;9.88;100.00
62634;BME280;48704;50.534;6.442;2023-04-19T08:56:47;96186.66;;;10.36;100.00
62634;BME280;48704;50.534;6.442;2023-04-19T08:59:13;96193.97;;;11.07;100.00
62634;BME280;48704;50.534;6.442;2023-04-19T09:01:39;96182.13;;;11.39;100.00
62634;BME280;48704;50.534;6.442;2023-04-19T09:04:05;96177.56;;;12.02;100.00
62634;BME280;48704;50.534;6.442;2023-04-19T09:06:35;96176.75;;;12.35;100.00
62634;BME280;48704;50.534;6.442;2023-04-19T09:09:18;96174.66;;;12.68;100.00
62634;BME280;48704;50.534;6.442;2023-04-19T09:11:44;96167.22;;;12.65;100.00
62634;BME280;48704;50.534;6.442;2023-04-19T09:14:10;96173.84;;;12.53;100.00
62634;BME280;48704;50.534;6.442;2023-04-19T09:16:36;96161.47;;;12.45;100.00
62634;BME280;48704;50.534;6.442;2023-04-19T09:19:04;96169.72;;;12.16;100.00
62634;BME280;48704;50.534;6.442;2023-04-19T09:21:30;96157.44;;;11.89;100.00
62634;BME280;48704;50.534;6.442;2023-04-19T09:23:56;96160.16;;;11.65;100.00
62634;BME280;48704;50.534;6.442;2023-04-19T09:26:22;96158.69;;;11.46;100.00
62634;BME280;48704;50.534;6.442;2023-04-19T09:28:57;96157.69;;;12.00;100.00
62634;BME280;48704;50.534;6.442;2023-04-19T09:31:23;96153.16;;;11.79;100.00
62634;BME280;48704;50.534;6.442;2023-04-19T09:33:50;96161.84;;;11.72;100.00
62634;BME280;48704;50.534;6.442;2023-04-19T09:36:29;96157.06;;;11.63;100.00
62634;BME280;48704;50.534;6.442;2023-04-19T09:38:55;96155.22;;;11.00;100.00
62634;BME280;48704;50.534;6.442;2023-04-19T09:41:21;96149.50;;;10.85;100.00
62634;BME280;48704;50.534;6.442;2023-04-19T09:43:46;96148.41;;;10.83;100.00
62634;BME280;48704;50.534;6.442;2023-04-19T09:46:31;96146.72;;;10.85;100.00
62634;BME280;48704;50.534;6.442;2023-04-19T09:51:44;96143.53;;;11.29;100.00
62634;BME280;48704;50.534;6.442;2023-04-19T09:54:11;96139.84;;;11.23;100.00
62634;BME280;48704;50.534;6.442;2023-04-19T09:56:37;96140.38;;;10.94;100.00
62634;BME280;48704;50.534;6.442;2023-04-19T09:59:04;96137.50;;;11.21;100.00
62634;BME280;48704;50.534;6.442;2023-04-19T10:01:34;96134.75;;;11.12;100.00
62634;BME280;48704;50.534;6.442;2023-04-19T10:04:02;96138.00;;;11.62;100.00
62634;BME280;48704;50.534;6.442;2023-04-19T10:06:28;96127.44;;;11.66;100.00
62634;BME280;48704;50.534;6.442;2023-04-19T10:08:53;96123.72;;;11.69;100.00
62634;BME280;48704;50.534;6.442;2023-04-19T10:11:20;96127.41;;;11.33;100.00
62634;BME280;48704;50.534;6.442;2023-04-19T10:13:47;96134.25;;;11.23;100.00
62634;BME280;48704;50.534;6.442;2023-04-19T10:16:15;96133.03;;;11.15;100.00
62634;BME280;48704;50.534;6.442;2023-04-19T10:18:40;96128.09;;;11.52;100.00
62634;BME280;48704;50.534;6.442;2023-04-19T10:21:07;96131.91;;;12.05;100.00
62634;BME280;48704;50.534;6.442;2023-04-19T10:23:33;96124.84;;;11.95;100.00
62634;BME280;48704;50.534;6.442;2023-04-19T10:25:59;96132.78;;;12.21;100.00
62634;BME280;48704;50.534;6.442;2023-04-19T10:28:27;96124.63;;;12.08;100.00
62634;BME280;48704;50.534;6.442;2023-04-19T10:30:54;96118.88;;;11.79;100.00
62634;BME280;48704;50.534;6.442;2023-04-19T10:33:25;96125.63;;;12.97;100.00
62634;BME280;48704;50.534;6.442;2023-04-19T10:35:54;96107.81;;;13.88;100.00
62634;BME280;48704;50.534;6.442;2023-04-19T10:38:34;96119.06;;;13.74;100.00
62634;BME280;48704;50.534;6.442;2023-04-19T10:41:00;96115.34;;;13.82;98.09
62634;BME280;48704;50.534;6.442;2023-04-19T10:43:31;96103.94;;;12.92;99.14
62634;BME280;48704;50.534;6.442;2023-04-19T10:46:12;96105.59;;;12.21;100.00
62634;BME280;48704;50.534;6.442;2023-04-19T10:48:40;96108.09;;;12.19;100.00
62634;BME280;48704;50.534;6.442;2023-04-19T10:51:12;96107.84;;;12.08;100.00
62634;BME280;48704;50.534;6.442;2023-04-19T10:56:14;96108.28;;;13.37;100.00
62634;BME280;48704;50.534;6.442;2023-04-19T11:03:57;96094.19;;;12.10;100.00
62634;BME280;48704;50.534;6.442;2023-04-19T11:06:22;96096.47;;;12.59;95.50
62634;BME280;48704;50.534;6.442;2023-04-19T11:08:51;96091.50;;;13.22;88.59
62634;BME280;48704;50.534;6.442;2023-04-19T11:11:17;96086.53;;;14.17;85.57
62634;BME280;48704;50.534;6.442;2023-04-19T11:13:43;96087.59;;;14.60;82.91
62634;BME280;48704;50.534;6.442;2023-04-19T11:16:11;96080.47;;;15.36;75.30
62634;BME280;48704;50.534;6.442;2023-04-19T11:18:36;96067.56;;;15.50;75.36
62634;BME280;48704;50.534;6.442;2023-04-19T11:21:01;96078.19;;;15.41;71.14
62634;BME280;48704;50.534;6.442;2023-04-19T11:23:27;96072.66;;;15.83;68.70
62634;BME280;48704;50.534;6.442;2023-04-19T11:25:52;96072.19;;;16.33;62.97
62634;BME280;48704;50.534;6.442;2023-04-19T11:28:17;96054.47;;;16.21;64.25
62634;BME280;48704;50.534;6.442;2023-04-19T11:30:43;96054.97;;;16.79;62.37
62634;BME280;48704;50.534;6.442;2023-04-19T11:33:11;96057.56;;;16.94;58.20
62634;BME280;48704;50.534;6.442;2023-04-19T11:35:37;96051.41;;;16.95;56.17
62634;BME280;48704;50.534;6.442;2023-04-19T11:38:02;96038.47;;;15.53;59.74
62634;BME280;48704;50.534;6.442;2023-04-19T11:40:29;96049.81;;;14.76;61.11
62634;BME280;48704;50.534;6.442;2023-04-19T11:43:00;96040.44;;;13.97;62.99
62634;BME280;48704;50.534;6.442;2023-04-19T11:45:34;96041.84;;;14.48;62.18
62634;BME280;48704;50.534;6.442;2023-04-19T11:48:01;96034.31;;;14.86;62.11
62634;BME280;48704;50.534;6.442;2023-04-19T11:52:55;96017.84;;;15.62;60.11
62634;BME280;48704;50.534;6.442;2023-04-19T11:55:20;96031.00;;;16.30;58.38
62634;BME280;48704;50.534;6.442;2023-04-19T11:57:46;96017.00;;;16.47;56.42
62634;BME280;48704;50.534;6.442;2023-04-19T12:00:12;96021.34;;;16.53;55.02
62634;BME280;48704;50.534;6.442;2023-04-19T12:02:39;96020.72;;;17.25;53.25
62634;BME280;48704;50.534;6.442;2023-04-19T12:05:09;96010.91;;;16.59;51.26
62634;BME280;48704;50.534;6.442;2023-04-19T12:07:35;96013.06;;;17.03;50.27
62634;BME280;48704;50.534;6.442;2023-04-19T12:10:10;96008.91;;;16.82;49.19
62634;BME280;48704;50.534;6.442;2023-04-19T12:12:36;96012.78;;;17.29;50.93
62634;BME280;48704;50.534;6.442;2023-04-19T12:15:03;95999.53;;;16.20;48.55
62634;BME280;48704;50.534;6.442;2023-04-19T12:17:29;95997.16;;;16.08;50.27
62634;BME280;48704;50.534;6.442;2023-04-19T12:19:54;96001.88;;;16.44;52.35
62634;BME280;48704;50.534;6.442;2023-04-19T12:22:20;95997.28;;;16.41;54.01
62634;BME280;48704;50.534;6.442;2023-04-19T12:24:46;95997.28;;;15.76;55.90
62634;BME280;48704;50.534;6.442;2023-04-19T12:27:11;96000.66;;;15.49;55.70
62634;BME280;48704;50.534;6.442;2023-04-19T12:29:37;95997.25;;;16.30;53.71
62634;BME280;48704;50.534;6.442;2023-04-19T12:32:03;96008.13;;;16.82;53.21
62634;BME280;48704;50.534;6.442;2023-04-19T12:34:29;96002.50;;;16.82;50.37
62634;BME280;48704;50.534;6.442;2023-04-19T12:36:55;96003.56;;;17.23;48.76
62634;BME280;48704;50.534;6.442;2023-04-19T12:39:20;95989.66;;;17.92;48.01
62634;BME280;48704;50.534;6.442;2023-04-19T12:41:46;95984.19;;;18.17;47.33
62634;BME280;48704;50.534;6.442;2023-04-19T12:44:14;95994.25;;;17.95;47.61
62634;BME280;48704;50.534;6.442;2023-04-19T12:46:40;95982.97;;;19.00;45.71
62634;BME280;48704;50.534;6.442;2023-04-19T12:49:05;95979.78;;;18.27;45.45
62634;BME280;48704;50.534;6.442;2023-04-19T12:51:30;95981.97;;;17.87;43.66
62634;BME280;48704;50.534;6.442;2023-04-19T12:53:56;95993.47;;;18.06;45.44
62634;BME280;48704;50.534;6.442;2023-04-19T12:56:22;95972.91;;;19.34;44.85
62634;BME280;48704;50.534;6.442;2023-04-19T12:58:47;95971.34;;;19.09;41.29
62634;BME280;48704;50.534;6.442;2023-04-19T13:01:12;95966.41;;;19.45;39.64
62634;BME280;48704;50.534;6.442;2023-04-19T13:03:37;95976.13;;;19.50;40.51
62634;BME280;48704;50.534;6.442;2023-04-19T13:06:03;95959.06;;;18.65;41.54